createdAt,value
2019-03-09T00:00:52.354Z,8.92
2019-03-09T00:01:52.138Z,8.87
2019-03-09T00:02:53.381Z,8.91
2019-03-09T00:03:52.833Z,8.95
2019-03-09T00:04:52.567Z,9
2019-03-09T00:05:52.569Z,8.99
2019-03-09T00:06:52.547Z,9.08
2019-03-09T00:07:52.311Z,9.06
2019-03-09T00:08:52.296Z,9.03
2019-03-09T00:09:52.534Z,9.03
2019-03-09T00:10:52.278Z,9.04
2019-03-09T00:11:52.437Z,9
2019-03-09T00:12:52.518Z,9.02
2019-03-09T00:13:52.267Z,8.97
2019-03-09T00:14:52.248Z,9.03
2019-03-09T00:15:52.510Z,8.99
2019-03-09T00:16:52.487Z,8.97
2019-03-09T00:17:52.482Z,8.99
2019-03-09T00:18:52.221Z,9
2019-03-09T00:19:52.523Z,9
2019-03-09T00:20:52.784Z,8.95
2019-03-09T00:21:52.452Z,9.06
2019-03-09T00:22:51.951Z,9.04
2019-03-09T00:23:52.200Z,9.04
2019-03-09T00:24:52.189Z,9.04
2019-03-09T00:25:52.171Z,9.02
2019-03-09T00:26:52.188Z,9.03
2019-03-09T00:27:52.412Z,9.06
2019-03-09T00:28:52.787Z,9.03
2019-03-09T00:29:52.176Z,9.04
2019-03-09T00:30:51.933Z,9.06
2019-03-09T00:31:52.391Z,9.02
2019-03-09T00:32:51.891Z,9.02
2019-03-09T00:33:52.138Z,8.99
2019-03-09T00:34:52.136Z,9.04
2019-03-09T00:35:52.126Z,8.95
2019-03-09T00:36:52.100Z,9.02
2019-03-09T00:37:52.157Z,9.03
2019-03-09T00:38:52.137Z,9
2019-03-09T00:39:52.399Z,8.99
2019-03-09T00:40:52.094Z,9.04
2019-03-09T00:41:52.084Z,9
2019-03-09T00:42:52.064Z,9.06
2019-03-09T00:43:52.086Z,8.97
2019-03-09T00:44:52.060Z,9
2019-03-09T00:45:52.537Z,9.06
2019-03-09T00:46:51.804Z,8.97
2019-03-09T00:47:52.296Z,9.02
2019-03-09T00:48:52.033Z,8.92
2019-03-09T00:49:52.066Z,9.13
2019-03-09T00:50:52.261Z,9.06
2019-03-09T00:51:52.271Z,9.08
2019-03-09T00:52:51.766Z,9.08
2019-03-09T00:53:51.904Z,8.99
2019-03-09T00:54:51.742Z,9
2019-03-09T00:55:52.227Z,9.03
2019-03-09T00:56:52.218Z,8.97
2019-03-09T00:57:52.229Z,9.08
2019-03-09T00:58:52.211Z,9.06
2019-03-09T00:59:51.952Z,9.02
2019-03-09T01:00:52.195Z,9.11
2019-03-09T01:01:52.008Z,9.08
2019-03-09T01:02:53.407Z,9.13
2019-03-09T01:03:51.913Z,9.16
2019-03-09T01:04:52.164Z,9.13
2019-03-09T01:05:51.926Z,9.14
2019-03-09T01:06:51.897Z,9.06
2019-03-09T01:07:51.899Z,9.02
2019-03-09T01:08:51.950Z,9.11
2019-03-09T01:09:52.130Z,9.13
2019-03-09T01:10:51.881Z,9.11
2019-03-09T01:11:51.867Z,9.16
2019-03-09T01:12:52.108Z,9.19
2019-03-09T01:13:51.906Z,9.14
2019-03-09T01:14:52.100Z,9.19
2019-03-09T01:15:51.596Z,9.18
2019-03-09T01:16:51.829Z,9.21
2019-03-09T01:17:52.087Z,9.23
2019-03-09T01:18:51.837Z,9.19
2019-03-09T01:19:52.069Z,9.21
2019-03-09T01:20:51.826Z,9.23
2019-03-09T01:21:51.847Z,9.18
2019-03-09T01:22:51.797Z,9.28
2019-03-09T01:23:51.800Z,9.13
2019-03-09T01:24:51.567Z,9.14
2019-03-09T01:25:51.790Z,9.22
2019-03-09T01:26:52.039Z,9.16
2019-03-09T01:27:51.782Z,9.13
2019-03-09T01:28:51.784Z,9.19
2019-03-09T01:29:51.798Z,9.22
2019-03-09T01:30:52.017Z,9.26
2019-03-09T01:31:51.749Z,9.34
2019-03-09T01:32:51.742Z,9.36
2019-03-09T01:33:51.756Z,9.36
2019-03-09T01:34:51.738Z,9.29
2019-03-09T01:35:51.725Z,9.32
2019-03-09T01:36:51.985Z,9.31
2019-03-09T01:37:51.727Z,9.28
2019-03-09T01:38:51.453Z,9.25
2019-03-09T01:39:51.687Z,9.16
2019-03-09T01:40:51.940Z,9.18
2019-03-09T01:41:51.926Z,9.14
2019-03-09T01:42:51.678Z,9.16
2019-03-09T01:43:51.420Z,9.22
2019-03-09T01:44:51.651Z,9.14
2019-03-09T01:45:51.664Z,9.14
2019-03-09T01:46:51.893Z,9.23
2019-03-09T01:47:51.636Z,9.18
2019-03-09T01:48:51.885Z,9.14
2019-03-09T01:49:51.878Z,9.21
2019-03-09T01:50:51.891Z,9.14
2019-03-09T01:51:51.615Z,9.18
2019-03-09T01:52:51.889Z,9.18
2019-03-09T01:53:51.592Z,9.18
2019-03-09T01:54:51.846Z,9.18
2019-03-09T01:55:51.840Z,9.14
2019-03-09T01:56:51.590Z,9.19
2019-03-09T01:57:51.825Z,9.18
2019-03-09T01:58:51.328Z,9.18
2019-03-09T01:59:51.810Z,9.18
2019-03-09T02:00:51.549Z,9.19
2019-03-09T02:01:51.811Z,9.23
2019-03-09T02:02:51.799Z,9.18
2019-03-09T02:03:52.381Z,9.16
2019-03-09T02:04:51.776Z,9.18
2019-03-09T02:05:51.279Z,9.14
2019-03-09T02:06:51.545Z,9.22
2019-03-09T02:07:51.775Z,9.16
2019-03-09T02:08:51.759Z,9.19
2019-03-09T02:09:51.254Z,9.19
2019-03-09T02:10:51.265Z,9.18
2019-03-09T02:11:51.783Z,9.11
2019-03-09T02:12:51.486Z,9.16
2019-03-09T02:13:51.754Z,9.19
2019-03-09T02:14:51.475Z,9.14
2019-03-09T02:15:51.753Z,9.18
2019-03-09T02:16:51.484Z,9.11
2019-03-09T02:17:51.694Z,9.19
2019-03-09T02:18:51.451Z,9.14
2019-03-09T02:19:51.449Z,9.16
2019-03-09T02:20:51.678Z,9.19
2019-03-09T02:21:51.663Z,9.18
2019-03-09T02:22:51.685Z,9.22
2019-03-09T02:23:51.406Z,9.28
2019-03-09T02:24:51.405Z,9.19
2019-03-09T02:25:51.639Z,9.21
2019-03-09T02:26:51.642Z,9.31
2019-03-09T02:27:51.639Z,9.16
2019-03-09T02:28:51.375Z,9.28
2019-03-09T02:29:51.377Z,9.26
2019-03-09T02:30:51.360Z,9.4
2019-03-09T02:31:51.620Z,9.32
2019-03-09T02:32:51.591Z,9.36
2019-03-09T02:33:51.352Z,9.36
2019-03-09T02:34:51.591Z,9.32
2019-03-09T02:35:51.337Z,9.32
2019-03-09T02:36:51.332Z,9.32
2019-03-09T02:37:51.343Z,9.39
2019-03-09T02:38:51.336Z,9.34
2019-03-09T02:39:51.331Z,9.4
2019-03-09T02:40:51.303Z,9.43
2019-03-09T02:41:51.557Z,9.5
2019-03-09T02:42:51.552Z,9.44
2019-03-09T02:43:51.539Z,9.44
2019-03-09T02:44:51.529Z,9.37
2019-03-09T02:45:51.297Z,9.44
2019-03-09T02:46:51.264Z,9.39
2019-03-09T02:47:51.541Z,9.34
2019-03-09T02:48:51.522Z,9.43
2019-03-09T02:49:51.490Z,9.37
2019-03-09T02:50:51.487Z,9.43
2019-03-09T02:51:51.491Z,9.44
2019-03-09T02:52:51.480Z,9.43
2019-03-09T02:53:52.045Z,9.41
2019-03-09T02:54:51.492Z,9.43
2019-03-09T02:55:51.221Z,9.44
2019-03-09T02:56:51.465Z,9.34
2019-03-09T02:57:51.450Z,9.4
2019-03-09T02:58:51.451Z,9.44
2019-03-09T02:59:51.428Z,9.39
2019-03-09T03:00:51.421Z,9.41
2019-03-09T03:01:51.425Z,9.39
2019-03-09T03:02:51.465Z,9.39
2019-03-09T03:03:51.414Z,9.43
2019-03-09T03:04:51.400Z,9.44
2019-03-09T03:05:51.417Z,9.47
2019-03-09T03:06:51.155Z,9.36
2019-03-09T03:07:51.133Z,9.39
2019-03-09T03:08:51.365Z,9.41
2019-03-09T03:09:51.116Z,9.34
2019-03-09T03:10:51.390Z,9.37
2019-03-09T03:11:51.410Z,9.37
2019-03-09T03:12:51.346Z,9.39
2019-03-09T03:13:51.346Z,9.37
2019-03-09T03:14:51.339Z,9.34
2019-03-09T03:15:51.339Z,9.48
2019-03-09T03:16:51.325Z,9.36
2019-03-09T03:17:51.322Z,9.41
2019-03-09T03:18:51.065Z,9.44
2019-03-09T03:19:51.337Z,9.4
2019-03-09T03:20:51.320Z,9.4
2019-03-09T03:21:51.302Z,9.39
2019-03-09T03:22:51.298Z,9.44
2019-03-09T03:23:50.785Z,9.41
2019-03-09T03:24:51.267Z,9.4
2019-03-09T03:25:51.271Z,9.43
2019-03-09T03:26:51.020Z,9.48
2019-03-09T03:27:51.261Z,9.44
2019-03-09T03:28:51.247Z,9.48
2019-03-09T03:29:51.262Z,9.47
2019-03-09T03:30:50.874Z,9.48
2019-03-09T03:31:51.250Z,9.4
2019-03-09T03:32:51.270Z,9.44
2019-03-09T03:33:51.244Z,9.41
2019-03-09T03:34:51.283Z,9.44
2019-03-09T03:35:51.213Z,9.56
2019-03-09T03:36:51.227Z,9.58
2019-03-09T03:37:50.940Z,9.56
2019-03-09T03:38:51.202Z,9.58
2019-03-09T03:39:50.923Z,9.54
2019-03-09T03:40:51.184Z,9.62
2019-03-09T03:41:50.917Z,9.58
2019-03-09T03:42:51.176Z,9.54
2019-03-09T03:43:51.157Z,9.62
2019-03-09T03:44:51.167Z,9.54
2019-03-09T03:45:51.219Z,9.66
2019-03-09T03:46:51.217Z,9.5
2019-03-09T03:47:51.155Z,9.5
2019-03-09T03:48:51.127Z,9.5
2019-03-09T03:49:51.123Z,9.62
2019-03-09T03:50:50.616Z,9.62
2019-03-09T03:51:51.116Z,9.56
2019-03-09T03:52:51.119Z,9.56
2019-03-09T03:53:50.871Z,9.59
2019-03-09T03:54:51.188Z,9.56
2019-03-09T03:55:50.835Z,9.59
2019-03-09T03:56:52.381Z,9.64
2019-03-09T03:57:51.075Z,9.58
2019-03-09T03:58:50.811Z,9.66
2019-03-09T03:59:51.053Z,9.64
2019-03-09T04:00:50.804Z,9.68
2019-03-09T04:01:50.572Z,9.61
2019-03-09T04:02:51.055Z,9.61
2019-03-09T04:03:51.047Z,9.58
2019-03-09T04:04:51.047Z,9.62
2019-03-09T04:05:51.013Z,9.56
2019-03-09T04:06:51.006Z,9.5
2019-03-09T04:07:51.004Z,9.54
2019-03-09T04:08:51.019Z,9.56
2019-03-09T04:09:51.020Z,9.51
2019-03-09T04:10:51.009Z,9.54
2019-03-09T04:11:50.981Z,9.59
2019-03-09T04:12:50.736Z,9.5
2019-03-09T04:13:50.968Z,9.54
2019-03-09T04:14:50.813Z,9.61
2019-03-09T04:15:50.954Z,9.54
2019-03-09T04:16:50.963Z,9.64
2019-03-09T04:17:50.694Z,9.54
2019-03-09T04:18:50.940Z,9.54
2019-03-09T04:19:50.683Z,9.61
2019-03-09T04:20:50.684Z,9.5
2019-03-09T04:21:50.929Z,9.56
2019-03-09T04:22:50.677Z,9.55
2019-03-09T04:23:50.900Z,9.55
2019-03-09T04:24:50.647Z,9.62
2019-03-09T04:25:50.430Z,9.59
2019-03-09T04:26:50.900Z,9.62
2019-03-09T04:27:50.712Z,9.65
2019-03-09T04:28:50.879Z,9.66
2019-03-09T04:29:50.955Z,9.61
2019-03-09T04:30:50.856Z,9.64
2019-03-09T04:31:50.883Z,9.61
2019-03-09T04:32:50.885Z,9.69
2019-03-09T04:33:50.594Z,9.76
2019-03-09T04:34:50.841Z,9.82
2019-03-09T04:35:50.616Z,9.76
2019-03-09T04:36:50.575Z,9.89
2019-03-09T04:37:50.832Z,9.77
2019-03-09T04:38:50.570Z,9.83
2019-03-09T04:39:50.823Z,9.8
2019-03-09T04:40:50.808Z,9.87
2019-03-09T04:41:50.787Z,9.89
2019-03-09T04:42:50.796Z,9.84
2019-03-09T04:43:50.788Z,9.92
2019-03-09T04:44:50.791Z,9.94
2019-03-09T04:45:50.518Z,9.89
2019-03-09T04:46:50.526Z,9.91
2019-03-09T04:47:50.528Z,10.02
2019-03-09T04:48:50.515Z,9.98
2019-03-09T04:49:50.734Z,10.01
2019-03-09T04:50:50.739Z,9.99
2019-03-09T04:51:50.729Z,10.01
2019-03-09T04:52:50.523Z,10.12
2019-03-09T04:53:50.462Z,10.04
2019-03-09T04:54:50.727Z,10.04
2019-03-09T04:55:50.209Z,10.12
2019-03-09T04:56:50.448Z,10.13
2019-03-09T04:57:50.445Z,10.09
2019-03-09T04:58:50.733Z,10.1
2019-03-09T04:59:50.685Z,10.05
2019-03-09T05:00:50.432Z,9.97
2019-03-09T05:01:50.443Z,9.95
2019-03-09T05:02:50.680Z,10.1
2019-03-09T05:03:50.162Z,10.05
2019-03-09T05:04:50.804Z,10.19
2019-03-09T05:05:50.649Z,10.13
2019-03-09T05:06:50.405Z,10.17
2019-03-09T05:07:50.649Z,10.13
2019-03-09T05:08:50.388Z,10.17
2019-03-09T05:09:50.371Z,10.16
2019-03-09T05:10:50.648Z,10.17
2019-03-09T05:11:50.607Z,10.05
2019-03-09T05:12:50.112Z,10.15
2019-03-09T05:13:50.345Z,9.98
2019-03-09T05:14:50.358Z,9.95
2019-03-09T05:15:50.602Z,10.02
2019-03-09T05:16:50.336Z,9.92
2019-03-09T05:17:50.335Z,9.95
2019-03-09T05:18:50.312Z,9.91
2019-03-09T05:19:50.551Z,9.89
2019-03-09T05:20:50.561Z,9.87
2019-03-09T05:21:50.048Z,9.86
2019-03-09T05:22:50.300Z,9.82
2019-03-09T05:23:50.293Z,9.79
2019-03-09T05:24:50.290Z,9.83
2019-03-09T05:25:50.039Z,9.84
2019-03-09T05:26:50.340Z,9.89
2019-03-09T05:27:50.286Z,9.86
2019-03-09T05:28:50.506Z,9.76
2019-03-09T05:29:50.246Z,9.74
2019-03-09T05:30:50.268Z,9.73
2019-03-09T05:31:50.487Z,9.74
2019-03-09T05:32:50.236Z,9.8
2019-03-09T05:33:50.007Z,9.68
2019-03-09T05:34:50.288Z,9.72
2019-03-09T05:35:50.474Z,9.59
2019-03-09T05:36:50.458Z,9.65
2019-03-09T05:37:49.962Z,9.62
2019-03-09T05:38:51.205Z,9.66
2019-03-09T05:39:50.439Z,9.54
2019-03-09T05:40:49.931Z,9.55
2019-03-09T05:41:50.421Z,9.56
2019-03-09T05:42:50.163Z,9.58
2019-03-09T05:43:50.413Z,9.55
2019-03-09T05:44:50.414Z,9.46
2019-03-09T05:45:50.404Z,9.39
2019-03-09T05:46:50.136Z,9.37
2019-03-09T05:47:50.398Z,9.44
2019-03-09T05:48:50.372Z,9.36
2019-03-09T05:49:50.112Z,9.46
2019-03-09T05:50:50.362Z,9.39
2019-03-09T05:51:50.108Z,9.29
2019-03-09T05:52:50.105Z,9.32
2019-03-09T05:53:50.347Z,9.31
2019-03-09T05:54:49.833Z,9.36
2019-03-09T05:55:50.331Z,9.34
2019-03-09T05:56:50.318Z,9.28
2019-03-09T05:57:50.096Z,9.25
2019-03-09T05:58:50.058Z,9.31
2019-03-09T05:59:50.076Z,9.21
2019-03-09T06:00:49.803Z,9.16
2019-03-09T06:01:50.034Z,9.16
2019-03-09T06:02:50.290Z,9.11
2019-03-09T06:03:50.282Z,9.28
2019-03-09T06:04:49.807Z,9.31
2019-03-09T06:05:49.762Z,9.26
2019-03-09T06:06:50.010Z,9.29
2019-03-09T06:07:50.257Z,9.25
2019-03-09T06:08:49.742Z,9.19
2019-03-09T06:09:49.994Z,9.26
2019-03-09T06:10:49.991Z,9.29
2019-03-09T06:11:49.983Z,9.32
2019-03-09T06:12:49.711Z,9.31
2019-03-09T06:13:50.199Z,9.31
2019-03-09T06:14:50.202Z,9.26
2019-03-09T06:15:50.192Z,9.14
2019-03-09T06:16:49.946Z,9.14
2019-03-09T06:17:50.189Z,9.18
2019-03-09T06:18:50.186Z,9.21
2019-03-09T06:19:49.919Z,9.16
2019-03-09T06:20:49.906Z,9.19
2019-03-09T06:21:49.905Z,9.14
2019-03-09T06:22:49.955Z,9.16
2019-03-09T06:23:49.999Z,9.16
2019-03-09T06:24:50.127Z,9.16
2019-03-09T06:25:49.892Z,9.13
2019-03-09T06:26:49.866Z,9.18
2019-03-09T06:27:49.860Z,9.19
2019-03-09T06:28:50.123Z,9.18
2019-03-09T06:29:50.093Z,9.18
2019-03-09T06:30:49.589Z,9.21
2019-03-09T06:31:50.693Z,9.22
2019-03-09T06:32:50.072Z,9.26
2019-03-09T06:33:50.073Z,9.21
2019-03-09T06:34:49.821Z,9.13
2019-03-09T06:35:49.839Z,9.16
2019-03-09T06:36:49.806Z,9.16
2019-03-09T06:37:49.802Z,9.22
2019-03-09T06:38:50.041Z,9.19
2019-03-09T06:39:49.770Z,9.21
2019-03-09T06:40:50.025Z,9.25
2019-03-09T06:41:50.006Z,9.34
2019-03-09T06:42:50.004Z,9.34
2019-03-09T06:43:49.766Z,9.32
2019-03-09T06:44:49.994Z,9.37
2019-03-09T06:45:49.783Z,9.4
2019-03-09T06:46:50.140Z,9.4
2019-03-09T06:47:49.736Z,9.4
2019-03-09T06:48:49.727Z,9.43
2019-03-09T06:49:50.010Z,9.4
2019-03-09T06:50:49.718Z,9.47
2019-03-09T06:51:50.044Z,9.5
2019-03-09T06:52:49.711Z,9.54
2019-03-09T06:53:49.965Z,9.41
2019-03-09T06:54:49.678Z,9.51
2019-03-09T06:55:49.672Z,9.58
2019-03-09T06:56:49.654Z,9.48
2019-03-09T06:57:49.655Z,9.54
2019-03-09T06:58:49.901Z,9.64
2019-03-09T06:59:49.662Z,9.51
2019-03-09T07:00:49.756Z,9.51
2019-03-09T07:01:49.923Z,9.55
2019-03-09T07:02:49.648Z,9.58
2019-03-09T07:03:49.624Z,9.55
2019-03-09T07:04:49.395Z,9.64
2019-03-09T07:05:50.963Z,9.66
2019-03-09T07:06:49.853Z,9.66
2019-03-09T07:07:49.877Z,9.72
2019-03-09T07:08:49.638Z,9.74
2019-03-09T07:09:49.591Z,9.61
2019-03-09T07:10:49.849Z,9.79
2019-03-09T07:11:49.577Z,9.76
2019-03-09T07:12:49.827Z,9.77
2019-03-09T07:13:56.990Z,9.76
2019-03-09T07:14:49.567Z,9.76
2019-03-09T07:15:49.801Z,9.86
2019-03-09T07:16:49.541Z,9.83
2019-03-09T07:17:49.531Z,9.86
2019-03-09T07:18:49.775Z,9.91
2019-03-09T07:19:49.775Z,9.95
2019-03-09T07:20:49.515Z,9.98
2019-03-09T07:21:49.766Z,9.94
2019-03-09T07:22:49.855Z,9.95
2019-03-09T07:23:49.500Z,9.98
2019-03-09T07:24:49.491Z,9.99
2019-03-09T07:25:49.772Z,10.04
2019-03-09T07:26:49.739Z,10.07
2019-03-09T07:27:49.483Z,10.07
2019-03-09T07:28:49.508Z,9.98
2019-03-09T07:29:49.480Z,10.09
2019-03-09T07:30:49.720Z,10.12
2019-03-09T07:31:49.448Z,10.17
2019-03-09T07:32:49.702Z,10.25
2019-03-09T07:33:49.693Z,10.33
2019-03-09T07:34:49.447Z,10.4
2019-03-09T07:35:49.678Z,10.63
2019-03-09T07:36:49.188Z,10.67
2019-03-09T07:37:49.897Z,10.78
2019-03-09T07:38:49.672Z,10.86
2019-03-09T07:39:49.491Z,10.72
2019-03-09T07:40:49.652Z,10.79
2019-03-09T07:41:49.405Z,10.75
2019-03-09T07:42:49.655Z,10.71
2019-03-09T07:43:49.642Z,10.72
2019-03-09T07:44:49.372Z,10.72
2019-03-09T07:45:49.620Z,10.93
2019-03-09T07:46:49.624Z,10.97
2019-03-09T07:47:49.118Z,11.04
2019-03-09T07:48:49.601Z,10.89
2019-03-09T07:49:49.112Z,10.84
2019-03-09T07:50:49.358Z,10.76
2019-03-09T07:51:49.592Z,10.76
2019-03-09T07:52:49.594Z,10.74
2019-03-09T07:53:49.333Z,10.75
2019-03-09T07:54:49.333Z,10.81
2019-03-09T07:55:49.587Z,10.82
2019-03-09T07:56:49.584Z,10.82
2019-03-09T07:57:49.573Z,10.79
2019-03-09T07:58:49.315Z,10.79
2019-03-09T07:59:49.308Z,10.86
2019-03-09T08:00:49.555Z,10.86
2019-03-09T08:01:49.298Z,10.82
2019-03-09T08:02:49.052Z,10.96
2019-03-09T08:03:49.540Z,10.94
2019-03-09T08:04:49.335Z,10.87
2019-03-09T08:05:49.272Z,10.92
2019-03-09T08:06:49.518Z,10.9
2019-03-09T08:07:49.288Z,10.89
2019-03-09T08:08:49.306Z,10.87
2019-03-09T08:09:49.259Z,11.02
2019-03-09T08:10:49.256Z,10.94
2019-03-09T08:11:49.024Z,11.04
2019-03-09T08:12:49.299Z,11
2019-03-09T08:13:49.502Z,11.04
2019-03-09T08:14:49.501Z,11.05
2019-03-09T08:15:49.259Z,11.05
2019-03-09T08:16:49.495Z,11.04
2019-03-09T08:17:49.490Z,11.18
2019-03-09T08:18:49.912Z,11.18
2019-03-09T08:19:49.492Z,11.17
2019-03-09T08:20:49.235Z,11.11
2019-03-09T08:21:49.496Z,11.15
2019-03-09T08:22:49.453Z,11.14
2019-03-09T08:23:49.222Z,11.17
2019-03-09T08:24:49.451Z,11.35
2019-03-09T08:25:49.239Z,11.32
2019-03-09T08:26:49.217Z,11.32
2019-03-09T08:27:49.444Z,11.37
2019-03-09T08:28:49.207Z,11.36
2019-03-09T08:29:49.435Z,11.33
2019-03-09T08:30:49.003Z,11.35
2019-03-09T08:31:49.408Z,11.37
2019-03-09T08:32:49.441Z,11.47
2019-03-09T08:33:48.959Z,11.47
2019-03-09T08:34:49.215Z,11.52
2019-03-09T08:35:49.407Z,11.44
2019-03-09T08:36:49.143Z,11.47
2019-03-09T08:37:49.402Z,11.52
2019-03-09T08:38:49.405Z,11.47
2019-03-09T08:39:49.403Z,11.59
2019-03-09T08:40:49.401Z,11.55
2019-03-09T08:41:49.464Z,11.52
2019-03-09T08:42:49.441Z,11.51
2019-03-09T08:43:49.386Z,11.6
2019-03-09T08:44:49.105Z,11.59
2019-03-09T08:45:49.378Z,11.6
2019-03-09T08:46:49.102Z,11.59
2019-03-09T08:47:57.209Z,11.68
2019-03-09T08:48:49.376Z,11.77
2019-03-09T08:49:49.344Z,11.75
2019-03-09T08:50:49.085Z,11.78
2019-03-09T08:51:49.112Z,11.81
2019-03-09T08:52:49.325Z,11.78
2019-03-09T08:53:48.936Z,11.69
2019-03-09T08:54:49.341Z,11.77
2019-03-09T08:55:48.878Z,11.69
2019-03-09T08:56:49.382Z,11.66
2019-03-09T08:57:49.132Z,11.62
2019-03-09T08:58:49.066Z,11.62
2019-03-09T08:59:49.338Z,11.57
2019-03-09T09:00:49.329Z,11.54
2019-03-09T09:01:49.068Z,11.54
2019-03-09T09:02:49.036Z,11.55
2019-03-09T09:03:49.042Z,11.51
2019-03-09T09:04:49.024Z,11.59
2019-03-09T09:05:49.284Z,11.6
2019-03-09T09:06:48.781Z,11.6
2019-03-09T09:07:49.038Z,11.54
2019-03-09T09:08:49.043Z,11.68
2019-03-09T09:09:49.001Z,11.6
2019-03-09T09:10:48.996Z,11.6
2019-03-09T09:11:49.796Z,11.57
2019-03-09T09:12:50.185Z,11.65
2019-03-09T09:13:49.004Z,11.65
2019-03-09T09:14:48.985Z,11.65
2019-03-09T09:15:49.238Z,11.55
2019-03-09T09:16:49.229Z,11.54
2019-03-09T09:17:49.282Z,11.63
2019-03-09T09:18:48.997Z,11.54
2019-03-09T09:19:49.208Z,11.52
2019-03-09T09:20:48.972Z,11.52
2019-03-09T09:21:48.968Z,11.62
2019-03-09T09:22:49.216Z,11.57
2019-03-09T09:23:49.196Z,11.63
2019-03-09T09:24:49.184Z,11.54
2019-03-09T09:25:49.194Z,11.52
2019-03-09T09:26:48.939Z,11.59
2019-03-09T09:27:48.927Z,11.6
2019-03-09T09:28:49.169Z,11.7
2019-03-09T09:29:48.938Z,11.78
2019-03-09T09:30:49.171Z,11.81
2019-03-09T09:31:49.159Z,11.81
2019-03-09T09:32:49.178Z,12.06
2019-03-09T09:33:49.145Z,11.97
2019-03-09T09:34:48.905Z,12.06
2019-03-09T09:35:49.148Z,12.03
2019-03-09T09:36:48.880Z,12.02
2019-03-09T09:37:49.146Z,12.04
2019-03-09T09:38:49.159Z,12.04
2019-03-09T09:39:49.196Z,12.09
2019-03-09T09:40:49.112Z,12.2
2019-03-09T09:41:48.611Z,12.28
2019-03-09T09:42:48.866Z,12.24
2019-03-09T09:43:48.859Z,12.32
2019-03-09T09:44:48.858Z,12.35
2019-03-09T09:45:49.115Z,12.31
2019-03-09T09:46:49.113Z,12.24
2019-03-09T09:47:48.851Z,12.17
2019-03-09T09:48:48.593Z,12.2
2019-03-09T09:49:48.849Z,12.17
2019-03-09T09:50:49.086Z,12.18
2019-03-09T09:51:48.859Z,12.24
2019-03-09T09:52:49.079Z,12.18
2019-03-09T09:53:49.077Z,12.24
2019-03-09T09:54:49.081Z,12.29
2019-03-09T09:55:48.816Z,12.18
2019-03-09T09:56:49.068Z,12.21
2019-03-09T09:57:48.823Z,12.13
2019-03-09T09:58:49.068Z,12.07
2019-03-09T09:59:49.044Z,12.18
2019-03-09T10:00:48.789Z,12.25
2019-03-09T10:01:48.556Z,12.18
2019-03-09T10:02:49.032Z,12.17
2019-03-09T10:03:49.042Z,12.17
2019-03-09T10:04:48.796Z,12.07
2019-03-09T10:05:49.036Z,12.04
2019-03-09T10:06:49.029Z,12.1
2019-03-09T10:07:48.797Z,12.07
2019-03-09T10:08:48.793Z,12.04
2019-03-09T10:09:49.001Z,12.15
2019-03-09T10:10:49.009Z,11.99
2019-03-09T10:11:49.051Z,11.99
2019-03-09T10:12:49.085Z,12.07
2019-03-09T10:13:48.999Z,12.06
2019-03-09T10:14:48.996Z,12.15
2019-03-09T10:15:48.734Z,12.15
2019-03-09T10:16:48.743Z,12.13
2019-03-09T10:17:48.996Z,12.06
2019-03-09T10:18:48.480Z,12.15
2019-03-09T10:19:48.731Z,12.04
2019-03-09T10:20:49.920Z,12.06
2019-03-09T10:21:48.965Z,12.1
2019-03-09T10:22:48.967Z,12.04
2019-03-09T10:23:48.727Z,12.02
2019-03-09T10:24:48.700Z,12.07
2019-03-09T10:25:48.708Z,12.07
2019-03-09T10:26:48.948Z,12.07
2019-03-09T10:27:48.944Z,12.09
2019-03-09T10:28:48.934Z,12.21
2019-03-09T10:29:48.933Z,12.2
2019-03-09T10:30:48.934Z,12.21
2019-03-09T10:31:48.944Z,12.17
2019-03-09T10:32:48.938Z,12.12
2019-03-09T10:33:48.683Z,12.03
2019-03-09T10:34:48.662Z,12.06
2019-03-09T10:35:48.682Z,12.04
2019-03-09T10:36:48.665Z,12.12
2019-03-09T10:37:48.905Z,12.15
2019-03-09T10:38:48.952Z,12.18
2019-03-09T10:39:48.652Z,12.18
2019-03-09T10:40:48.661Z,12.2
2019-03-09T10:41:48.886Z,12.25
2019-03-09T10:42:48.705Z,12.31
2019-03-09T10:43:48.383Z,12.36
2019-03-09T10:44:49.807Z,12.32
2019-03-09T10:45:48.946Z,12.35
2019-03-09T10:46:48.624Z,12.22
2019-03-09T10:47:48.893Z,12.28
2019-03-09T10:48:48.873Z,12.37
2019-03-09T10:49:48.858Z,12.37
2019-03-09T10:50:48.610Z,12.31
2019-03-09T10:51:48.612Z,12.32
2019-03-09T10:52:48.857Z,12.31
2019-03-09T10:53:48.865Z,12.32
2019-03-09T10:54:48.618Z,12.32
2019-03-09T10:55:48.612Z,12.32
2019-03-09T10:56:48.845Z,12.29
2019-03-09T10:57:48.840Z,12.35
2019-03-09T10:58:48.589Z,12.43
2019-03-09T10:59:48.834Z,12.39
2019-03-09T11:00:48.589Z,12.37
2019-03-09T11:01:48.830Z,12.29
2019-03-09T11:02:48.335Z,12.35
2019-03-09T11:03:48.578Z,12.32
2019-03-09T11:04:48.816Z,12.24
2019-03-09T11:05:48.825Z,12.25
2019-03-09T11:06:49.107Z,12.15
2019-03-09T11:07:48.799Z,12.18
2019-03-09T11:08:48.797Z,12.18
2019-03-09T11:09:48.907Z,12.18
2019-03-09T11:10:48.543Z,12.22
2019-03-09T11:11:48.556Z,12.28
2019-03-09T11:12:48.775Z,12.2
2019-03-09T11:13:56.185Z,12.18
2019-03-09T11:14:48.792Z,12.2
2019-03-09T11:15:48.779Z,12.15
2019-03-09T11:16:48.561Z,12.13
2019-03-09T11:17:48.549Z,12.15
2019-03-09T11:18:48.533Z,12.17
2019-03-09T11:19:48.252Z,12.21
2019-03-09T11:20:48.757Z,12.12
2019-03-09T11:21:48.508Z,12.21
2019-03-09T11:22:48.568Z,12.18
2019-03-09T11:23:48.900Z,12.22
2019-03-09T11:24:48.482Z,12.17
2019-03-09T11:25:48.750Z,12.22
2019-03-09T11:26:48.736Z,12.22
2019-03-09T11:27:48.753Z,12.29
2019-03-09T11:28:48.711Z,12.35
2019-03-09T11:29:48.706Z,12.29
2019-03-09T11:30:48.244Z,12.37
2019-03-09T11:31:48.467Z,12.37
2019-03-09T11:32:48.700Z,12.37
2019-03-09T11:33:48.447Z,12.37
2019-03-09T11:34:48.702Z,12.35
2019-03-09T11:35:48.736Z,12.25
2019-03-09T11:36:48.687Z,12.29
2019-03-09T11:37:48.680Z,12.32
2019-03-09T11:38:48.432Z,12.28
2019-03-09T11:39:48.443Z,12.24
2019-03-09T11:41:00.780Z,12.31
2019-03-09T11:41:48.185Z,12.29
2019-03-09T11:42:48.676Z,12.36
2019-03-09T11:43:48.419Z,12.31
2019-03-09T11:44:48.410Z,12.37
2019-03-09T11:45:48.418Z,12.5
2019-03-09T11:46:48.649Z,12.47
2019-03-09T11:47:48.398Z,12.43
2019-03-09T11:48:48.624Z,12.5
2019-03-09T11:49:48.391Z,12.47
2019-03-09T11:50:48.639Z,12.53
2019-03-09T11:51:48.139Z,12.45
2019-03-09T11:52:48.386Z,12.53
2019-03-09T11:53:48.629Z,12.47
2019-03-09T11:54:48.645Z,12.46
2019-03-09T11:55:48.381Z,12.53
2019-03-09T11:56:48.626Z,12.55
2019-03-09T11:57:48.368Z,12.6
2019-03-09T11:58:48.608Z,12.55
2019-03-09T11:59:48.112Z,12.58
2019-03-09T12:00:48.609Z,12.65
2019-03-09T12:01:48.635Z,12.57
2019-03-09T12:02:48.600Z,12.58
2019-03-09T12:03:49.878Z,12.6
2019-03-09T12:04:51.690Z,12.45
2019-03-09T12:05:48.345Z,12.49
2019-03-09T12:06:48.833Z,12.5
2019-03-09T12:07:48.089Z,12.47
2019-03-09T12:08:48.334Z,12.47
2019-03-09T12:09:48.571Z,12.5
2019-03-09T12:10:48.078Z,12.39
2019-03-09T12:11:50.725Z,12.31
2019-03-09T12:12:48.555Z,12.31
2019-03-09T12:13:48.626Z,12.37
2019-03-09T12:14:48.549Z,12.31
2019-03-09T12:15:48.328Z,12.36
2019-03-09T12:16:48.308Z,12.36
2019-03-09T12:17:50.473Z,12.29
2019-03-09T12:18:48.314Z,12.36
2019-03-09T12:19:48.569Z,12.25
2019-03-09T12:20:48.311Z,12.31
2019-03-09T12:21:48.303Z,12.35
2019-03-09T12:22:48.528Z,12.2
2019-03-09T12:23:48.298Z,12.2
2019-03-09T12:24:48.529Z,12.28
2019-03-09T12:25:48.518Z,12.28
2019-03-09T12:26:48.259Z,12.29
2019-03-09T12:27:48.511Z,12.36
2019-03-09T12:28:48.504Z,12.37
2019-03-09T12:29:48.003Z,12.37
2019-03-09T12:30:48.272Z,12.39
2019-03-09T12:31:48.506Z,12.36
2019-03-09T12:32:48.498Z,12.35
2019-03-09T12:33:48.006Z,12.36
2019-03-09T12:34:48.253Z,12.37
2019-03-09T12:35:49.083Z,12.32
2019-03-09T12:36:48.550Z,12.32
2019-03-09T12:37:48.484Z,12.22
2019-03-09T12:38:48.464Z,12.25
2019-03-09T12:39:48.229Z,12.37
2019-03-09T12:40:48.236Z,12.43
2019-03-09T12:41:48.462Z,12.4
2019-03-09T12:42:48.451Z,12.39
2019-03-09T12:43:47.964Z,12.25
2019-03-09T12:44:48.198Z,12.36
2019-03-09T12:45:48.469Z,12.36
2019-03-09T12:46:48.450Z,12.39
2019-03-09T12:47:48.409Z,12.45
2019-03-09T12:48:48.206Z,12.37
2019-03-09T12:49:47.943Z,12.42
2019-03-09T12:50:48.418Z,12.47
2019-03-09T12:51:48.415Z,12.47
2019-03-09T12:52:48.158Z,12.57
2019-03-09T12:53:48.166Z,12.46
2019-03-09T12:54:48.402Z,12.53
2019-03-09T12:55:47.996Z,12.6
2019-03-09T12:56:48.409Z,12.58
2019-03-09T12:57:48.429Z,12.6
2019-03-09T12:58:51.011Z,12.57
2019-03-09T12:59:48.390Z,12.61
2019-03-09T13:00:48.389Z,12.62
2019-03-09T13:01:48.137Z,12.72
2019-03-09T13:02:48.395Z,12.8
2019-03-09T13:03:48.393Z,12.82
2019-03-09T13:04:47.888Z,12.79
2019-03-09T13:05:49.337Z,12.91
2019-03-09T13:06:49.158Z,12.94
2019-03-09T13:07:48.363Z,12.97
2019-03-09T13:08:48.363Z,12.95